sensor_id;sensor_type;location;lat;lon;timestamp;P1;durP1;ratioP1;P2;durP2;ratioP2
7767;SDS011;3928;42.626;23.382;2022-11-20T00:00:16;16.05;;;9.68;;
7767;SDS011;3928;42.626;23.382;2022-11-20T00:02:43;12.85;;;7.97;;
7767;SDS011;3928;42.626;23.382;2022-11-20T00:05:10;14.00;;;8.55;;
7767;SDS011;3928;42.626;23.382;2022-11-20T00:07:37;10.55;;;7.15;;
7767;SDS011;3928;42.626;23.382;2022-11-20T00:10:04;8.88;;;7.43;;
7767;SDS011;3928;42.626;23.382;2022-11-20T00:12:33;8.50;;;5.53;;
7767;SDS011;3928;42.626;23.382;2022-11-20T00:15:00;7.85;;;5.45;;
7767;SDS011;3928;42.626;23.382;2022-11-20T00:17:27;7.43;;;5.53;;
7767;SDS011;3928;42.626;23.382;2022-11-20T00:19:53;10.55;;;7.57;;
7767;SDS011;3928;42.626;23.382;2022-11-20T00:22:20;9.38;;;5.72;;
7767;SDS011;3928;42.626;23.382;2022-11-20T00:24:47;5.53;;;4.90;;
7767;SDS011;3928;42.626;23.382;2022-11-20T00:27:14;6.97;;;4.43;;
7767;SDS011;3928;42.626;23.382;2022-11-20T00:29:42;6.72;;;4.20;;
7767;SDS011;3928;42.626;23.382;2022-11-20T00:32:09;6.20;;;4.10;;
7767;SDS011;3928;42.626;23.382;2022-11-20T00:34:35;6.28;;;4.32;;
7767;SDS011;3928;42.626;23.382;2022-11-20T00:37:02;5.78;;;3.13;;
7767;SDS011;3928;42.626;23.382;2022-11-20T00:39:29;7.15;;;3.50;;
7767;SDS011;3928;42.626;23.382;2022-11-20T00:41:56;8.02;;;3.38;;
7767;SDS011;3928;42.626;23.382;2022-11-20T00:44:22;8.75;;;3.38;;
7767;SDS011;3928;42.626;23.382;2022-11-20T00:46:50;6.70;;;3.42;;
7767;SDS011;3928;42.626;23.382;2022-11-20T00:49:18;8.57;;;3.65;;
7767;SDS011;3928;42.626;23.382;2022-11-20T00:51:45;3.83;;;2.97;;
7767;SDS011;3928;42.626;23.382;2022-11-20T00:54:12;5.97;;;2.65;;
7767;SDS011;3928;42.626;23.382;2022-11-20T00:56:39;6.75;;;3.50;;
7767;SDS011;3928;42.626;23.382;2022-11-20T00:59:06;7.22;;;3.30;;
7767;SDS011;3928;42.626;23.382;2022-11-20T01:01:35;6.55;;;3.13;;
7767;SDS011;3928;42.626;23.382;2022-11-20T01:04:04;5.88;;;3.28;;
7767;SDS011;3928;42.626;23.382;2022-11-20T01:06:31;4.00;;;2.67;;
7767;SDS011;3928;42.626;23.382;2022-11-20T01:09:01;4.05;;;2.70;;
7767;SDS011;3928;42.626;23.382;2022-11-20T01:11:30;4.47;;;2.88;;
7767;SDS011;3928;42.626;23.382;2022-11-20T01:13:58;3.17;;;2.88;;
7767;SDS011;3928;42.626;23.382;2022-11-20T01:16:28;4.82;;;3.13;;
7767;SDS011;3928;42.626;23.382;2022-11-20T01:18:57;6.03;;;3.40;;
7767;SDS011;3928;42.626;23.382;2022-11-20T01:24:14;4.53;;;3.15;;
7767;SDS011;3928;42.626;23.382;2022-11-20T01:26:43;5.93;;;3.53;;
7767;SDS011;3928;42.626;23.382;2022-11-20T01:29:12;5.43;;;3.85;;
7767;SDS011;3928;42.626;23.382;2022-11-20T01:31:40;3.47;;;3.17;;
7767;SDS011;3928;42.626;23.382;2022-11-20T01:34:09;4.88;;;3.42;;
7767;SDS011;3928;42.626;23.382;2022-11-20T01:36:37;5.22;;;3.22;;
7767;SDS011;3928;42.626;23.382;2022-11-20T01:39:07;3.53;;;3.15;;
7767;SDS011;3928;42.626;23.382;2022-11-20T01:41:36;4.82;;;3.42;;
7767;SDS011;3928;42.626;23.382;2022-11-20T01:44:21;4.18;;;3.42;;
7767;SDS011;3928;42.626;23.382;2022-11-20T01:47:08;5.25;;;2.90;;
7767;SDS011;3928;42.626;23.382;2022-11-20T01:49:40;3.72;;;3.20;;
7767;SDS011;3928;42.626;23.382;2022-11-20T01:52:13;3.78;;;2.90;;
7767;SDS011;3928;42.626;23.382;2022-11-20T01:54:46;6.40;;;3.80;;
7767;SDS011;3928;42.626;23.382;2022-11-20T01:57:18;5.80;;;3.92;;
7767;SDS011;3928;42.626;23.382;2022-11-20T01:59:47;5.90;;;3.53;;
7767;SDS011;3928;42.626;23.382;2022-11-20T02:02:18;4.70;;;3.85;;
7767;SDS011;3928;42.626;23.382;2022-11-20T02:04:45;6.45;;;3.83;;
7767;SDS011;3928;42.626;23.382;2022-11-20T02:07:13;5.25;;;3.75;;
7767;SDS011;3928;42.626;23.382;2022-11-20T02:09:40;5.18;;;3.90;;
7767;SDS011;3928;42.626;23.382;2022-11-20T02:12:08;4.50;;;4.00;;
7767;SDS011;3928;42.626;23.382;2022-11-20T02:14:56;5.68;;;3.65;;
7767;SDS011;3928;42.626;23.382;2022-11-20T02:17:22;5.70;;;4.10;;
7767;SDS011;3928;42.626;23.382;2022-11-20T02:19:50;5.72;;;3.55;;
7767;SDS011;3928;42.626;23.382;2022-11-20T02:22:18;4.65;;;1.98;;
7767;SDS011;3928;42.626;23.382;2022-11-20T02:24:50;2.55;;;1.80;;
7767;SDS011;3928;42.626;23.382;2022-11-20T02:27:17;2.30;;;1.80;;
7767;SDS011;3928;42.626;23.382;2022-11-20T02:29:45;4.00;;;1.92;;
7767;SDS011;3928;42.626;23.382;2022-11-20T02:32:19;2.30;;;1.90;;
7767;SDS011;3928;42.626;23.382;2022-11-20T02:34:47;2.38;;;2.10;;
7767;SDS011;3928;42.626;23.382;2022-11-20T02:37:14;5.65;;;2.50;;
7767;SDS011;3928;42.626;23.382;2022-11-20T02:39:42;4.82;;;2.38;;
7767;SDS011;3928;42.626;23.382;2022-11-20T02:42:13;2.90;;;1.88;;
7767;SDS011;3928;42.626;23.382;2022-11-20T02:44:40;2.47;;;1.80;;
7767;SDS011;3928;42.626;23.382;2022-11-20T02:47:07;5.07;;;2.88;;
7767;SDS011;3928;42.626;23.382;2022-11-20T02:49:35;4.15;;;2.20;;
7767;SDS011;3928;42.626;23.382;2022-11-20T02:52:01;2.80;;;1.48;;
7767;SDS011;3928;42.626;23.382;2022-11-20T02:54:28;2.22;;;1.50;;
7767;SDS011;3928;42.626;23.382;2022-11-20T02:56:55;3.92;;;1.25;;
7767;SDS011;3928;42.626;23.382;2022-11-20T02:59:24;2.65;;;1.33;;
7767;SDS011;3928;42.626;23.382;2022-11-20T03:01:50;2.53;;;1.60;;
7767;SDS011;3928;42.626;23.382;2022-11-20T03:04:17;2.20;;;1.40;;
7767;SDS011;3928;42.626;23.382;2022-11-20T03:06:44;5.72;;;1.60;;
7767;SDS011;3928;42.626;23.382;2022-11-20T03:09:11;5.63;;;1.50;;
7767;SDS011;3928;42.626;23.382;2022-11-20T03:11:38;3.05;;;1.45;;
7767;SDS011;3928;42.626;23.382;2022-11-20T03:14:06;5.25;;;2.08;;
7767;SDS011;3928;42.626;23.382;2022-11-20T03:16:34;1.60;;;1.17;;
7767;SDS011;3928;42.626;23.382;2022-11-20T03:19:00;3.50;;;1.20;;
7767;SDS011;3928;42.626;23.382;2022-11-20T03:21:27;2.70;;;1.95;;
7767;SDS011;3928;42.626;23.382;2022-11-20T03:23:55;2.63;;;1.48;;
7767;SDS011;3928;42.626;23.382;2022-11-20T03:26:23;3.30;;;1.67;;
7767;SDS011;3928;42.626;23.382;2022-11-20T03:28:52;2.72;;;1.67;;
7767;SDS011;3928;42.626;23.382;2022-11-20T03:31:21;1.30;;;1.27;;
7767;SDS011;3928;42.626;23.382;2022-11-20T03:33:51;4.80;;;1.63;;
7767;SDS011;3928;42.626;23.382;2022-11-20T03:36:19;2.90;;;1.70;;
7767;SDS011;3928;42.626;23.382;2022-11-20T03:38:46;2.17;;;1.33;;
7767;SDS011;3928;42.626;23.382;2022-11-20T03:41:14;3.28;;;1.50;;
7767;SDS011;3928;42.626;23.382;2022-11-20T03:43:46;1.67;;;1.40;;
7767;SDS011;3928;42.626;23.382;2022-11-20T03:46:14;3.22;;;1.95;;
7767;SDS011;3928;42.626;23.382;2022-11-20T03:48:41;3.10;;;1.60;;
7767;SDS011;3928;42.626;23.382;2022-11-20T03:51:09;2.13;;;1.48;;
7767;SDS011;3928;42.626;23.382;2022-11-20T03:53:38;5.55;;;1.58;;
7767;SDS011;3928;42.626;23.382;2022-11-20T03:56:05;2.15;;;1.70;;
7767;SDS011;3928;42.626;23.382;2022-11-20T03:58:33;2.78;;;1.40;;
7767;SDS011;3928;42.626;23.382;2022-11-20T04:01:05;3.42;;;1.50;;
7767;SDS011;3928;42.626;23.382;2022-11-20T04:03:32;2.10;;;1.38;;
7767;SDS011;3928;42.626;23.382;2022-11-20T04:06:01;2.15;;;1.30;;
7767;SDS011;3928;42.626;23.382;2022-11-20T04:08:30;4.53;;;1.50;;
7767;SDS011;3928;42.626;23.382;2022-11-20T04:11:07;3.17;;;1.60;;
7767;SDS011;3928;42.626;23.382;2022-11-20T04:13:34;2.40;;;1.25;;
7767;SDS011;3928;42.626;23.382;2022-11-20T04:16:01;1.90;;;1.30;;
7767;SDS011;3928;42.626;23.382;2022-11-20T04:18:28;2.22;;;1.50;;
7767;SDS011;3928;42.626;23.382;2022-11-20T04:20:56;2.28;;;1.45;;
7767;SDS011;3928;42.626;23.382;2022-11-20T04:23:22;2.10;;;1.30;;
7767;SDS011;3928;42.626;23.382;2022-11-20T04:25:51;4.28;;;1.27;;
7767;SDS011;3928;42.626;23.382;2022-11-20T04:28:18;1.77;;;1.17;;
7767;SDS011;3928;42.626;23.382;2022-11-20T04:30:45;1.85;;;1.40;;
7767;SDS011;3928;42.626;23.382;2022-11-20T04:33:12;3.42;;;1.55;;
7767;SDS011;3928;42.626;23.382;2022-11-20T04:35:38;5.57;;;1.60;;
7767;SDS011;3928;42.626;23.382;2022-11-20T04:38:05;3.08;;;1.60;;
7767;SDS011;3928;42.626;23.382;2022-11-20T04:40:32;2.38;;;1.40;;
7767;SDS011;3928;42.626;23.382;2022-11-20T04:43:00;4.32;;;1.38;;
7767;SDS011;3928;42.626;23.382;2022-11-20T04:45:27;4.30;;;1.42;;
7767;SDS011;3928;42.626;23.382;2022-11-20T04:47:54;2.35;;;1.58;;
7767;SDS011;3928;42.626;23.382;2022-11-20T04:50:21;2.22;;;1.55;;
7767;SDS011;3928;42.626;23.382;2022-11-20T04:52:47;1.75;;;1.60;;
7767;SDS011;3928;42.626;23.382;2022-11-20T04:55:14;4.97;;;1.42;;
7767;SDS011;3928;42.626;23.382;2022-11-20T04:57:41;2.15;;;1.63;;
7767;SDS011;3928;42.626;23.382;2022-11-20T05:00:10;3.22;;;1.30;;
7767;SDS011;3928;42.626;23.382;2022-11-20T05:02:37;3.60;;;1.60;;
7767;SDS011;3928;42.626;23.382;2022-11-20T05:05:04;1.35;;;1.20;;
7767;SDS011;3928;42.626;23.382;2022-11-20T05:07:31;3.70;;;1.50;;
7767;SDS011;3928;42.626;23.382;2022-11-20T05:09:58;4.00;;;1.50;;
7767;SDS011;3928;42.626;23.382;2022-11-20T05:12:25;10.02;;;2.67;;
7767;SDS011;3928;42.626;23.382;2022-11-20T05:14:52;2.40;;;1.48;;
7767;SDS011;3928;42.626;23.382;2022-11-20T05:17:20;1.70;;;1.50;;
7767;SDS011;3928;42.626;23.382;2022-11-20T05:19:47;2.85;;;1.70;;
7767;SDS011;3928;42.626;23.382;2022-11-20T05:22:14;3.35;;;1.60;;
7767;SDS011;3928;42.626;23.382;2022-11-20T05:24:40;2.40;;;1.60;;
7767;SDS011;3928;42.626;23.382;2022-11-20T05:27:07;7.55;;;5.63;;
7767;SDS011;3928;42.626;23.382;2022-11-20T05:29:35;2.78;;;1.77;;
7767;SDS011;3928;42.626;23.382;2022-11-20T05:32:02;5.35;;;2.00;;
7767;SDS011;3928;42.626;23.382;2022-11-20T05:34:32;3.88;;;1.63;;
7767;SDS011;3928;42.626;23.382;2022-11-20T05:36:59;1.83;;;1.70;;
7767;SDS011;3928;42.626;23.382;2022-11-20T05:39:26;3.15;;;1.70;;
7767;SDS011;3928;42.626;23.382;2022-11-20T05:41:52;4.38;;;1.85;;
7767;SDS011;3928;42.626;23.382;2022-11-20T05:44:33;2.85;;;1.73;;
7767;SDS011;3928;42.626;23.382;2022-11-20T05:47:00;5.95;;;2.00;;
7767;SDS011;3928;42.626;23.382;2022-11-20T05:49:26;5.57;;;2.03;;
7767;SDS011;3928;42.626;23.382;2022-11-20T05:51:54;2.67;;;2.10;;
7767;SDS011;3928;42.626;23.382;2022-11-20T05:54:21;4.43;;;2.03;;
7767;SDS011;3928;42.626;23.382;2022-11-20T05:56:48;2.55;;;1.73;;
7767;SDS011;3928;42.626;23.382;2022-11-20T05:59:15;3.92;;;2.00;;
7767;SDS011;3928;42.626;23.382;2022-11-20T06:01:42;2.92;;;1.83;;
7767;SDS011;3928;42.626;23.382;2022-11-20T06:04:09;3.00;;;1.95;;
7767;SDS011;3928;42.626;23.382;2022-11-20T06:06:35;3.67;;;2.05;;
7767;SDS011;3928;42.626;23.382;2022-11-20T06:09:04;7.20;;;2.10;;
7767;SDS011;3928;42.626;23.382;2022-11-20T06:11:31;4.70;;;3.10;;
7767;SDS011;3928;42.626;23.382;2022-11-20T06:13:58;2.13;;;1.92;;
7767;SDS011;3928;42.626;23.382;2022-11-20T06:16:25;5.65;;;2.13;;
7767;SDS011;3928;42.626;23.382;2022-11-20T06:18:52;4.50;;;1.90;;
7767;SDS011;3928;42.626;23.382;2022-11-20T06:21:19;4.68;;;1.98;;
7767;SDS011;3928;42.626;23.382;2022-11-20T06:23:47;5.68;;;2.20;;
7767;SDS011;3928;42.626;23.382;2022-11-20T06:26:16;4.55;;;2.33;;
7767;SDS011;3928;42.626;23.382;2022-11-20T06:28:44;9.75;;;4.82;;
7767;SDS011;3928;42.626;23.382;2022-11-20T06:31:12;4.40;;;2.28;;
7767;SDS011;3928;42.626;23.382;2022-11-20T06:33:40;4.00;;;1.98;;
7767;SDS011;3928;42.626;23.382;2022-11-20T06:36:09;2.85;;;1.73;;
7767;SDS011;3928;42.626;23.382;2022-11-20T06:38:36;3.05;;;1.67;;
7767;SDS011;3928;42.626;23.382;2022-11-20T06:41:04;4.93;;;2.08;;
7767;SDS011;3928;42.626;23.382;2022-11-20T06:43:32;4.38;;;1.45;;
7767;SDS011;3928;42.626;23.382;2022-11-20T06:45:59;4.35;;;2.25;;
7767;SDS011;3928;42.626;23.382;2022-11-20T06:48:26;5.65;;;2.38;;
7767;SDS011;3928;42.626;23.382;2022-11-20T06:50:54;3.80;;;1.75;;
7767;SDS011;3928;42.626;23.382;2022-11-20T06:53:21;6.10;;;1.70;;
7767;SDS011;3928;42.626;23.382;2022-11-20T06:55:48;10.63;;;2.10;;
7767;SDS011;3928;42.626;23.382;2022-11-20T06:58:15;4.50;;;2.00;;
7767;SDS011;3928;42.626;23.382;2022-11-20T07:00:44;3.47;;;1.88;;
7767;SDS011;3928;42.626;23.382;2022-11-20T07:03:11;3.38;;;2.25;;
7767;SDS011;3928;42.626;23.382;2022-11-20T07:05:38;3.25;;;1.70;;
7767;SDS011;3928;42.626;23.382;2022-11-20T07:08:05;3.47;;;1.60;;
7767;SDS011;3928;42.626;23.382;2022-11-20T07:10:33;4.07;;;1.70;;
7767;SDS011;3928;42.626;23.382;2022-11-20T07:13:00;5.63;;;2.00;;
7767;SDS011;3928;42.626;23.382;2022-11-20T07:15:26;3.85;;;1.92;;
7767;SDS011;3928;42.626;23.382;2022-11-20T07:17:55;8.57;;;2.03;;
7767;SDS011;3928;42.626;23.382;2022-11-20T07:20:24;5.80;;;2.15;;
7767;SDS011;3928;42.626;23.382;2022-11-20T07:22:52;6.30;;;2.08;;
7767;SDS011;3928;42.626;23.382;2022-11-20T07:25:20;3.47;;;1.70;;
7767;SDS011;3928;42.626;23.382;2022-11-20T07:27:47;6.07;;;1.75;;
7767;SDS011;3928;42.626;23.382;2022-11-20T07:30:14;3.28;;;2.13;;
7767;SDS011;3928;42.626;23.382;2022-11-20T07:32:41;4.10;;;1.85;;
7767;SDS011;3928;42.626;23.382;2022-11-20T07:35:09;3.90;;;1.70;;
7767;SDS011;3928;42.626;23.382;2022-11-20T07:37:36;4.28;;;1.80;;
7767;SDS011;3928;42.626;23.382;2022-11-20T07:40:03;3.72;;;2.30;;
7767;SDS011;3928;42.626;23.382;2022-11-20T07:42:31;4.38;;;1.95;;
7767;SDS011;3928;42.626;23.382;2022-11-20T07:44:57;8.25;;;2.40;;
7767;SDS011;3928;42.626;23.382;2022-11-20T07:47:24;4.20;;;1.88;;
7767;SDS011;3928;42.626;23.382;2022-11-20T07:49:51;7.55;;;1.85;;
7767;SDS011;3928;42.626;23.382;2022-11-20T07:52:19;2.53;;;1.60;;
7767;SDS011;3928;42.626;23.382;2022-11-20T07:54:46;5.90;;;2.22;;
7767;SDS011;3928;42.626;23.382;2022-11-20T07:57:12;8.20;;;1.83;;
7767;SDS011;3928;42.626;23.382;2022-11-20T07:59:39;4.38;;;1.85;;
7767;SDS011;3928;42.626;23.382;2022-11-20T08:02:09;6.70;;;2.30;;
7767;SDS011;3928;42.626;23.382;2022-11-20T08:04:36;5.60;;;2.80;;
7767;SDS011;3928;42.626;23.382;2022-11-20T08:07:03;6.63;;;3.35;;
7767;SDS011;3928;42.626;23.382;2022-11-20T08:09:31;5.40;;;2.10;;
7767;SDS011;3928;42.626;23.382;2022-11-20T08:11:58;3.53;;;2.10;;
7767;SDS011;3928;42.626;23.382;2022-11-20T08:14:42;4.80;;;2.00;;
7767;SDS011;3928;42.626;23.382;2022-11-20T08:17:09;8.95;;;3.15;;
7767;SDS011;3928;42.626;23.382;2022-11-20T08:19:36;6.55;;;2.72;;
7767;SDS011;3928;42.626;23.382;2022-11-20T08:22:03;2.35;;;1.80;;
7767;SDS011;3928;42.626;23.382;2022-11-20T08:24:31;5.38;;;2.05;;
7767;SDS011;3928;42.626;23.382;2022-11-20T08:26:58;5.47;;;2.00;;
7767;SDS011;3928;42.626;23.382;2022-11-20T08:29:25;6.65;;;2.17;;
7767;SDS011;3928;42.626;23.382;2022-11-20T08:31:53;4.68;;;1.67;;
7767;SDS011;3928;42.626;23.382;2022-11-20T08:34:20;3.97;;;2.35;;
7767;SDS011;3928;42.626;23.382;2022-11-20T08:36:48;7.38;;;1.85;;
7767;SDS011;3928;42.626;23.382;2022-11-20T08:39:15;5.15;;;1.95;;
7767;SDS011;3928;42.626;23.382;2022-11-20T08:41:43;3.15;;;1.63;;
7767;SDS011;3928;42.626;23.382;2022-11-20T08:44:10;5.88;;;1.92;;
7767;SDS011;3928;42.626;23.382;2022-11-20T08:46:38;9.70;;;2.00;;
7767;SDS011;3928;42.626;23.382;2022-11-20T08:49:07;6.00;;;2.50;;
7767;SDS011;3928;42.626;23.382;2022-11-20T08:51:35;5.18;;;1.98;;
7767;SDS011;3928;42.626;23.382;2022-11-20T08:54:03;4.28;;;1.85;;
7767;SDS011;3928;42.626;23.382;2022-11-20T08:56:31;9.18;;;2.05;;
7767;SDS011;3928;42.626;23.382;2022-11-20T08:58:59;3.97;;;2.22;;
7767;SDS011;3928;42.626;23.382;2022-11-20T09:01:27;5.18;;;2.08;;
7767;SDS011;3928;42.626;23.382;2022-11-20T09:03:55;6.55;;;2.00;;
7767;SDS011;3928;42.626;23.382;2022-11-20T09:06:22;6.63;;;2.60;;
7767;SDS011;3928;42.626;23.382;2022-11-20T09:08:51;7.32;;;2.42;;
7767;SDS011;3928;42.626;23.382;2022-11-20T09:11:18;7.43;;;2.35;;
7767;SDS011;3928;42.626;23.382;2022-11-20T09:13:45;9.68;;;2.40;;
7767;SDS011;3928;42.626;23.382;2022-11-20T09:16:13;7.72;;;2.65;;
7767;SDS011;3928;42.626;23.382;2022-11-20T09:18:40;3.40;;;2.50;;
7767;SDS011;3928;42.626;23.382;2022-11-20T09:21:08;8.35;;;2.65;;
7767;SDS011;3928;42.626;23.382;2022-11-20T09:23:37;7.32;;;3.08;;
7767;SDS011;3928;42.626;23.382;2022-11-20T09:26:05;8.48;;;3.95;;
7767;SDS011;3928;42.626;23.382;2022-11-20T09:28:33;7.53;;;3.25;;
7767;SDS011;3928;42.626;23.382;2022-11-20T09:30:59;8.43;;;3.53;;
7767;SDS011;3928;42.626;23.382;2022-11-20T09:33:28;4.57;;;3.40;;
7767;SDS011;3928;42.626;23.382;2022-11-20T09:35:54;4.72;;;2.92;;
7767;SDS011;3928;42.626;23.382;2022-11-20T09:38:21;6.90;;;3.20;;
7767;SDS011;3928;42.626;23.382;2022-11-20T09:40:50;6.72;;;3.47;;
7767;SDS011;3928;42.626;23.382;2022-11-20T09:43:24;8.23;;;3.65;;
7767;SDS011;3928;42.626;23.382;2022-11-20T09:46:04;5.57;;;3.40;;
7767;SDS011;3928;42.626;23.382;2022-11-20T09:48:51;6.05;;;3.00;;
7767;SDS011;3928;42.626;23.382;2022-11-20T09:51:33;5.95;;;2.83;;
7767;SDS011;3928;42.626;23.382;2022-11-20T09:54:12;6.18;;;2.78;;
7767;SDS011;3928;42.626;23.382;2022-11-20T09:56:42;5.32;;;3.83;;
7767;SDS011;3928;42.626;23.382;2022-11-20T09:59:15;6.53;;;3.22;;
7767;SDS011;3928;42.626;23.382;2022-11-20T10:01:54;7.80;;;3.05;;
7767;SDS011;3928;42.626;23.382;2022-11-20T10:04:23;2.95;;;2.67;;
7767;SDS011;3928;42.626;23.382;2022-11-20T10:06:52;7.93;;;4.60;;
7767;SDS011;3928;42.626;23.382;2022-11-20T10:09:26;5.25;;;3.15;;
7767;SDS011;3928;42.626;23.382;2022-11-20T10:12:01;4.65;;;2.45;;
7767;SDS011;3928;42.626;23.382;2022-11-20T10:14:40;3.28;;;2.33;;
7767;SDS011;3928;42.626;23.382;2022-11-20T10:17:18;7.28;;;2.67;;
7767;SDS011;3928;42.626;23.382;2022-11-20T10:19:59;6.13;;;3.17;;
7767;SDS011;3928;42.626;23.382;2022-11-20T10:22:40;7.05;;;2.90;;
7767;SDS011;3928;42.626;23.382;2022-11-20T10:25:18;7.03;;;3.33;;
7767;SDS011;3928;42.626;23.382;2022-11-20T10:27:54;6.55;;;3.67;;
7767;SDS011;3928;42.626;23.382;2022-11-20T10:30:31;7.57;;;3.45;;
7767;SDS011;3928;42.626;23.382;2022-11-20T10:33:04;11.30;;;4.25;;
7767;SDS011;3928;42.626;23.382;2022-11-20T10:35:39;5.80;;;3.47;;
7767;SDS011;3928;42.626;23.382;2022-11-20T10:38:12;8.10;;;3.85;;
7767;SDS011;3928;42.626;23.382;2022-11-20T10:40:44;7.57;;;3.33;;
7767;SDS011;3928;42.626;23.382;2022-11-20T10:43:16;7.55;;;3.10;;
7767;SDS011;3928;42.626;23.382;2022-11-20T10:45:50;7.32;;;3.35;;
7767;SDS011;3928;42.626;23.382;2022-11-20T10:48:22;8.10;;;3.22;;
7767;SDS011;3928;42.626;23.382;2022-11-20T10:50:57;7.15;;;3.83;;
7767;SDS011;3928;42.626;23.382;2022-11-20T10:53:39;7.80;;;3.38;;
7767;SDS011;3928;42.626;23.382;2022-11-20T10:56:15;12.40;;;8.68;;
7767;SDS011;3928;42.626;23.382;2022-11-20T10:58:48;9.10;;;4.93;;
7767;SDS011;3928;42.626;23.382;2022-11-20T11:01:23;20.50;;;13.27;;
7767;SDS011;3928;42.626;23.382;2022-11-20T11:03:51;8.25;;;5.03;;
7767;SDS011;3928;42.626;23.382;2022-11-20T11:06:22;5.28;;;3.08;;
7767;SDS011;3928;42.626;23.382;2022-11-20T11:08:56;6.10;;;3.83;;
7767;SDS011;3928;42.626;23.382;2022-11-20T11:11:28;5.43;;;3.13;;
7767;SDS011;3928;42.626;23.382;2022-11-20T11:14:04;4.93;;;3.40;;
7767;SDS011;3928;42.626;23.382;2022-11-20T11:16:31;7.55;;;3.33;;
7767;SDS011;3928;42.626;23.382;2022-11-20T11:19:04;5.05;;;3.55;;
7767;SDS011;3928;42.626;23.382;2022-11-20T11:21:33;7.65;;;3.80;;
7767;SDS011;3928;42.626;23.382;2022-11-20T11:24:02;8.38;;;3.75;;
7767;SDS011;3928;42.626;23.382;2022-11-20T11:26:30;9.15;;;4.43;;
7767;SDS011;3928;42.626;23.382;2022-11-20T11:28:57;11.60;;;4.78;;
7767;SDS011;3928;42.626;23.382;2022-11-20T11:31:25;8.45;;;4.82;;
7767;SDS011;3928;42.626;23.382;2022-11-20T11:34:03;5.28;;;3.83;;
7767;SDS011;3928;42.626;23.382;2022-11-20T11:36:33;5.13;;;3.63;;
7767;SDS011;3928;42.626;23.382;2022-11-20T11:39:02;6.05;;;3.25;;
7767;SDS011;3928;42.626;23.382;2022-11-20T11:41:32;6.40;;;2.35;;
7767;SDS011;3928;42.626;23.382;2022-11-20T11:44:01;1.55;;;1.42;;
7767;SDS011;3928;42.626;23.382;2022-11-20T11:47:00;1.20;;;1.10;;
7767;SDS011;3928;42.626;23.382;2022-11-20T11:49:30;2.05;;;1.55;;
7767;SDS011;3928;42.626;23.382;2022-11-20T11:52:00;5.88;;;2.95;;
7767;SDS011;3928;42.626;23.382;2022-11-20T11:54:33;3.70;;;2.55;;
7767;SDS011;3928;42.626;23.382;2022-11-20T11:57:05;3.00;;;1.60;;
7767;SDS011;3928;42.626;23.382;2022-11-20T11:59:41;2.10;;;1.50;;
7767;SDS011;3928;42.626;23.382;2022-11-20T12:02:23;5.22;;;1.50;;
7767;SDS011;3928;42.626;23.382;2022-11-20T12:04:57;2.30;;;1.50;;
7767;SDS011;3928;42.626;23.382;2022-11-20T12:07:34;6.78;;;2.15;;
7767;SDS011;3928;42.626;23.382;2022-11-20T12:10:08;3.15;;;1.58;;
7767;SDS011;3928;42.626;23.382;2022-11-20T12:12:42;1.25;;;1.15;;
7767;SDS011;3928;42.626;23.382;2022-11-20T12:15:13;1.20;;;1.10;;
7767;SDS011;3928;42.626;23.382;2022-11-20T12:17:48;1.00;;;1.00;;
7767;SDS011;3928;42.626;23.382;2022-11-20T12:20:15;3.55;;;1.13;;
7767;SDS011;3928;42.626;23.382;2022-11-20T12:22:46;1.00;;;1.00;;
7767;SDS011;3928;42.626;23.382;2022-11-20T12:25:20;3.78;;;2.08;;
7767;SDS011;3928;42.626;23.382;2022-11-20T12:28:03;6.83;;;1.70;;
7767;SDS011;3928;42.626;23.382;2022-11-20T12:30:41;1.33;;;1.08;;
7767;SDS011;3928;42.626;23.382;2022-11-20T12:36:15;1.27;;;1.17;;
7767;SDS011;3928;42.626;23.382;2022-11-20T12:38:56;1.25;;;1.15;;
7767;SDS011;3928;42.626;23.382;2022-11-20T12:41:31;1.98;;;1.20;;
7767;SDS011;3928;42.626;23.382;2022-11-20T12:47:41;4.35;;;1.58;;
7767;SDS011;3928;42.626;23.382;2022-11-20T12:50:20;6.07;;;1.60;;
7767;SDS011;3928;42.626;23.382;2022-11-20T12:52:56;3.45;;;1.70;;
7767;SDS011;3928;42.626;23.382;2022-11-20T12:55:30;4.43;;;1.65;;
7767;SDS011;3928;42.626;23.382;2022-11-20T12:58:05;3.00;;;1.52;;
7767;SDS011;3928;42.626;23.382;2022-11-20T13:00:39;2.30;;;2.00;;
7767;SDS011;3928;42.626;23.382;2022-11-20T13:03:23;3.58;;;2.28;;
7767;SDS011;3928;42.626;23.382;2022-11-20T13:06:10;5.88;;;2.20;;
7767;SDS011;3928;42.626;23.382;2022-11-20T13:08:43;6.50;;;2.35;;
7767;SDS011;3928;42.626;23.382;2022-11-20T13:11:16;4.15;;;2.88;;
7767;SDS011;3928;42.626;23.382;2022-11-20T13:13:56;4.22;;;2.58;;
7767;SDS011;3928;42.626;23.382;2022-11-20T13:16:34;4.07;;;2.40;;
7767;SDS011;3928;42.626;23.382;2022-11-20T13:19:04;5.28;;;2.58;;
7767;SDS011;3928;42.626;23.382;2022-11-20T13:21:37;5.97;;;2.30;;
7767;SDS011;3928;42.626;23.382;2022-11-20T13:24:05;4.47;;;3.05;;
7767;SDS011;3928;42.626;23.382;2022-11-20T13:26:34;6.30;;;2.83;;
7767;SDS011;3928;42.626;23.382;2022-11-20T13:29:02;5.90;;;3.05;;
7767;SDS011;3928;42.626;23.382;2022-11-20T13:31:35;5.65;;;2.92;;
7767;SDS011;3928;42.626;23.382;2022-11-20T13:34:07;6.43;;;2.65;;
7767;SDS011;3928;42.626;23.382;2022-11-20T13:36:48;6.05;;;3.10;;
7767;SDS011;3928;42.626;23.382;2022-11-20T13:39:23;7.82;;;4.53;;
7767;SDS011;3928;42.626;23.382;2022-11-20T13:41:55;6.25;;;3.00;;
7767;SDS011;3928;42.626;23.382;2022-11-20T13:44:24;8.40;;;3.33;;
7767;SDS011;3928;42.626;23.382;2022-11-20T13:46:55;4.82;;;3.28;;
7767;SDS011;3928;42.626;23.382;2022-11-20T13:49:23;8.18;;;2.67;;
7767;SDS011;3928;42.626;23.382;2022-11-20T13:51:55;8.55;;;3.40;;
7767;SDS011;3928;42.626;23.382;2022-11-20T13:54:39;17.83;;;6.07;;
7767;SDS011;3928;42.626;23.382;2022-11-20T13:57:33;7.55;;;3.00;;
7767;SDS011;3928;42.626;23.382;2022-11-20T14:00:12;6.60;;;3.78;;
7767;SDS011;3928;42.626;23.382;2022-11-20T14:02:41;6.00;;;3.13;;
7767;SDS011;3928;42.626;23.382;2022-11-20T14:05:15;8.90;;;3.55;;
7767;SDS011;3928;42.626;23.382;2022-11-20T14:07:47;5.13;;;3.05;;
7767;SDS011;3928;42.626;23.382;2022-11-20T14:10:22;5.50;;;3.40;;
7767;SDS011;3928;42.626;23.382;2022-11-20T14:12:51;6.90;;;3.28;;
7767;SDS011;3928;42.626;23.382;2022-11-20T14:15:24;5.60;;;3.45;;
7767;SDS011;3928;42.626;23.382;2022-11-20T14:17:53;6.55;;;3.92;;
7767;SDS011;3928;42.626;23.382;2022-11-20T14:20:20;7.75;;;3.83;;
7767;SDS011;3928;42.626;23.382;2022-11-20T14:22:51;11.15;;;3.95;;
7767;SDS011;3928;42.626;23.382;2022-11-20T14:25:19;8.20;;;4.28;;
7767;SDS011;3928;42.626;23.382;2022-11-20T14:27:50;10.50;;;3.97;;
7767;SDS011;3928;42.626;23.382;2022-11-20T14:30:21;14.48;;;7.93;;
7767;SDS011;3928;42.626;23.382;2022-11-20T14:32:50;13.57;;;5.30;;
7767;SDS011;3928;42.626;23.382;2022-11-20T14:35:20;5.75;;;3.60;;
7767;SDS011;3928;42.626;23.382;2022-11-20T14:37:50;12.52;;;4.95;;
7767;SDS011;3928;42.626;23.382;2022-11-20T14:40:21;6.95;;;3.63;;
7767;SDS011;3928;42.626;23.382;2022-11-20T14:42:50;10.32;;;3.95;;
7767;SDS011;3928;42.626;23.382;2022-11-20T14:45:18;10.98;;;3.92;;
7767;SDS011;3928;42.626;23.382;2022-11-20T14:47:46;5.32;;;3.33;;
7767;SDS011;3928;42.626;23.382;2022-11-20T14:50:16;7.60;;;3.95;;
7767;SDS011;3928;42.626;23.382;2022-11-20T14:52:52;8.27;;;4.05;;
7767;SDS011;3928;42.626;23.382;2022-11-20T14:55:27;7.93;;;4.57;;
7767;SDS011;3928;42.626;23.382;2022-11-20T14:57:56;7.93;;;4.10;;
7767;SDS011;3928;42.626;23.382;2022-11-20T15:00:26;7.85;;;4.65;;
7767;SDS011;3928;42.626;23.382;2022-11-20T15:02:53;9.73;;;4.75;;
7767;SDS011;3928;42.626;23.382;2022-11-20T15:05:21;8.15;;;4.88;;
7767;SDS011;3928;42.626;23.382;2022-11-20T15:07:49;7.95;;;5.38;;
7767;SDS011;3928;42.626;23.382;2022-11-20T15:10:21;7.88;;;4.18;;
7767;SDS011;3928;42.626;23.382;2022-11-20T15:12:50;7.18;;;4.32;;
7767;SDS011;3928;42.626;23.382;2022-11-20T15:15:20;9.40;;;4.95;;
7767;SDS011;3928;42.626;23.382;2022-11-20T15:17:50;9.88;;;5.90;;
7767;SDS011;3928;42.626;23.382;2022-11-20T15:20:18;9.95;;;5.97;;
7767;SDS011;3928;42.626;23.382;2022-11-20T15:22:44;8.23;;;4.82;;
7767;SDS011;3928;42.626;23.382;2022-11-20T15:25:12;9.38;;;4.80;;